Time;durP1;ratioP1;P1;durP2;ratioP2;P2;SDS_P1;SDS_P2;PMS_P1;PMS_P2;Temp;Humidity;BMP_temperature;BMP_pressure;BME280_temperature;BME280_humidity;BME280_pressure;Samples;Min_cycle;Max_cycle;Signal;HPM_P1;HPM_P2
2021/04/02 00:00:57;;;;;;;37.25;20.58;;;14.70;54.10;;;15.09;44.55;97830.00;4936590;29;20061;-50
2021/04/02 00:03:34;;;;;;;44.72;22.45;;;14.70;54.20;;;15.11;44.47;97836.00;4934694;29;20514;-51
2021/04/02 00:06:04;;;;;;;37.20;20.75;;;14.70;53.90;;;15.08;44.69;97837.22;4929130;29;20353;-50
2021/04/02 00:08:33;;;;;;;36.33;20.23;;;14.60;54.30;;;15.04;44.71;97838.59;4929325;29;20058;-54
2021/04/02 00:11:10;;;;;;;30.88;18.45;;;14.60;54.30;;;15.02;44.80;97839.78;4927761;29;20051;-51
2021/04/02 00:13:44;;;;;;;36.03;19.98;;;14.60;55.40;;;14.98;44.90;97838.50;4927909;29;20057;-49
2021/04/02 00:16:17;;;;;;;30.15;18.38;;;14.50;54.80;;;14.90;45.00;97836.75;4926820;29;20064;-50
2021/04/02 00:18:46;;;;;;;35.40;18.67;;;14.30;54.90;;;14.85;44.75;97839.13;4928826;29;20059;-51
2021/04/02 00:21:15;;;;;;;32.17;18.83;;;14.30;55.00;;;14.77;45.13;97835.53;4927936;29;20063;-51
2021/04/02 00:23:44;;;;;;;34.28;20.88;;;14.20;55.30;;;14.67;45.24;97829.59;4925846;29;20063;-49
2021/04/02 00:26:21;;;;;;;40.78;21.35;;;14.00;55.70;;;14.61;45.40;97827.66;4927126;29;20052;-52
2021/04/02 00:28:53;;;;;;;36.28;20.95;;;14.00;56.80;;;14.54;45.63;97830.19;4926889;29;20346;-52
2021/04/02 00:31:22;;;;;;;31.63;19.77;;;13.90;56.10;;;14.49;45.52;97837.13;4926112;29;20059;-49
2021/04/02 00:33:50;;;;;;;39.58;21.23;;;13.80;56.00;;;14.46;45.56;97829.44;4927785;29;20353;-51
2021/04/02 00:36:17;;;;;;;31.55;19.55;;;13.70;56.00;;;14.40;45.64;97819.44;4927278;29;20051;-49
2021/04/02 00:38:45;;;;;;;31.30;20.80;;;13.80;56.20;;;14.40;45.68;97822.13;4928256;29;20055;-52
2021/04/02 00:41:18;;;;;;;39.83;21.60;;;13.80;55.90;;;14.38;45.98;97822.31;4926105;29;20345;-51
2021/04/02 00:43:50;;;;;;;34.53;19.73;;;13.80;56.40;;;14.38;45.51;97822.31;4927102;29;20055;-51
2021/04/02 00:46:20;;;;;;;36.53;21.17;;;13.80;56.10;;;14.37;45.71;97820.66;4927429;29;20057;-49
2021/04/02 00:48:49;;;;;;;31.23;21.42;;;13.80;56.10;;;14.35;45.95;97822.69;4925921;29;20341;-47
2021/04/02 00:51:30;;;;;;;35.63;19.88;;;13.70;56.30;;;14.32;46.71;97823.84;4928037;29;20051;-49
2021/04/02 00:53:58;;;;;;;34.47;21.77;;;13.70;57.30;;;14.30;45.89;97825.06;4927207;29;20062;-48
2021/04/02 00:56:26;;;;;;;31.58;20.75;;;13.70;56.00;;;14.30;45.82;97820.53;4911323;29;20070;-47
2021/04/02 00:58:55;;;;;;;33.35;19.55;;;13.70;56.40;;;14.29;45.97;97820.72;4927247;29;20066;-45
2021/04/02 01:01:23;;;;;;;29.95;20.55;;;13.70;56.60;;;14.18;46.64;97819.28;4928208;29;20059;-47
2021/04/02 01:03:52;;;;;;;33.50;20.40;;;13.50;58.00;;;14.10;46.31;97814.84;4926055;29;20349;-49
2021/04/02 01:06:26;;;;;;;35.15;19.38;;;13.40;56.90;;;14.11;46.22;97815.66;4925604;29;20062;-52
2021/04/02 01:08:56;;;;;;;32.95;20.13;;;13.50;56.90;;;14.10;46.29;97811.34;4911927;29;20058;-46
2021/04/02 01:11:27;;;;;;;30.35;20.52;;;13.50;56.90;;;14.08;46.30;97819.53;4928224;29;20050;-47
2021/04/02 01:14:00;;;;;;;31.75;20.15;;;13.50;56.90;;;14.07;46.39;97817.88;4927045;29;20047;-46
2021/04/02 01:16:35;;;;;;;32.30;18.85;;;13.50;56.80;;;14.06;46.38;97818.06;4927867;29;20395;-49
2021/04/02 01:19:31;;;;;;;33.40;18.80;;;13.50;57.50;;;13.92;48.41;97819.66;4924613;29;20047;-47
2021/04/02 01:22:09;;;;;;;27.50;16.73;;;13.40;58.20;;;13.93;47.33;97814.13;4926592;29;20383;-48
2021/04/02 01:24:51;;;;;;;26.13;16.52;;;13.30;58.10;;;13.73;47.66;97813.75;4907811;29;20063;-47
2021/04/02 01:28:21;;;;;;;25.58;15.65;;;13.10;59.20;;;13.61;48.40;97814.34;4912376;29;20063;-44
2021/04/02 01:30:50;;;;;;;28.73;15.02;;;13.00;60.00;;;13.53;48.00;97817.88;4891514;29;20056;-48
2021/04/02 01:33:19;;;;;;;29.15;14.98;;;12.80;59.10;;;13.48;48.45;97820.28;4926705;29;20254;-45
2021/04/02 01:35:48;;;;;;;25.63;15.07;;;12.80;60.40;;;13.40;48.42;97826.50;4926548;29;20137;-48
2021/04/02 01:38:26;;;;;;;25.17;15.80;;;12.70;59.40;;;13.33;49.15;97823.66;4927106;29;20054;-48
2021/04/02 01:40:59;;;;;;;20.95;14.32;;;12.70;61.20;;;13.28;48.61;97823.34;4926938;29;20062;-46
2021/04/02 01:43:46;;;;;;;22.33;13.73;;;12.60;60.00;;;13.30;48.78;97826.72;4926594;29;20059;-50
2021/04/02 01:46:17;;;;;;;19.70;13.77;;;12.70;60.00;;;13.30;48.53;97832.06;4932059;29;20069;-45
2021/04/02 01:48:47;;;;;;;20.15;12.93;;;12.70;59.20;;;13.29;48.54;97830.34;4935967;29;20348;-46
2021/04/02 01:51:16;;;;;;;19.15;11.45;;;12.60;59.60;;;13.23;48.49;97832.91;4939223;29;20524;-50
2021/04/02 01:53:49;;;;;;;22.20;13.40;;;12.60;59.50;;;13.19;48.60;97835.91;4940408;29;20068;-45
2021/04/02 01:56:24;;;;;;;20.15;11.93;;;12.50;59.90;;;13.17;48.39;97837.91;4936289;29;20054;-47
2021/04/02 01:58:53;;;;;;;20.02;12.30;;;12.50;59.70;;;13.16;48.44;97832.72;4935141;29;20443;-46
2021/04/02 02:01:32;;;;;;;19.30;12.55;;;12.50;59.40;;;13.15;49.30;97841.78;4919800;29;20066;-46
2021/04/02 02:04:03;;;;;;;18.42;13.45;;;12.50;60.30;;;13.14;48.56;97838.28;4910833;29;20064;-47
2021/04/02 02:06:33;;;;;;;19.98;11.85;;;12.50;59.70;;;13.12;48.82;97845.59;4911531;29;20056;-46
2021/04/02 02:09:23;;;;;;;16.60;11.18;;;12.40;59.80;;;13.10;48.46;97839.59;4911805;29;20048;-46
2021/04/02 02:11:57;;;;;;;17.17;10.93;;;12.40;59.40;;;13.09;48.66;97837.94;4909742;29;20056;-48
2021/04/02 02:14:39;;;;;;;17.53;10.53;;;12.50;59.90;;;13.10;48.40;97838.78;4896549;29;20052;-46
2021/04/02 02:17:22;;;;;;;15.38;10.25;;;12.50;59.20;;;13.10;48.46;97841.44;4892502;29;20093;-46
2021/04/02 02:19:51;;;;;;;19.30;12.05;;;12.50;59.40;;;13.09;48.17;97840.63;4911596;29;20066;-50
2021/04/02 02:22:22;;;;;;;19.85;11.05;;;12.60;58.80;;;13.09;48.33;97837.13;4909058;29;20048;-45
2021/04/02 02:24:59;;;;;;;18.65;12.38;;;12.60;59.00;;;13.11;48.08;97843.97;4909828;29;20062;-50
2021/04/02 02:27:27;;;;;;;19.00;12.15;;;12.60;58.60;;;13.11;48.02;97846.63;4910307;29;20064;-49
2021/04/02 02:29:56;;;;;;;20.35;11.30;;;12.60;58.60;;;13.09;48.20;97843.28;4910470;29;20044;-50
2021/04/02 02:32:24;;;;;;;15.13;10.07;;;12.50;58.70;;;13.03;48.07;97845.81;4910875;29;20377;-47
2021/04/02 02:34:53;;;;;;;15.05;9.20;;;12.30;58.70;;;12.91;47.89;97842.66;4908955;29;20082;-47
2021/04/02 02:37:23;;;;;;;14.15;9.02;;;12.20;58.90;;;12.79;47.72;97843.06;4912001;29;20064;-44
2021/04/02 02:39:53;;;;;;;15.07;9.02;;;12.10;60.10;;;12.68;48.14;97842.56;4909105;29;20064;-46
2021/04/02 02:42:22;;;;;;;16.73;10.95;;;11.90;59.70;;;12.62;48.47;97844.09;4909331;29;20261;-45
2021/04/02 02:44:51;;;;;;;16.67;10.13;;;11.90;60.10;;;12.59;48.75;97849.75;4910287;29;20059;-45
2021/04/02 02:47:19;;;;;;;16.88;9.43;;;11.80;60.00;;;12.58;48.56;97850.75;4908910;29;20269;-49
2021/04/02 02:49:53;;;;;;;16.07;10.23;;;11.90;59.60;;;12.53;48.87;97848.59;4910680;29;20495;-48
2021/04/02 02:52:23;;;;;;;16.20;9.40;;;11.80;60.50;;;12.40;49.28;97843.75;4910269;29;20575;-48
2021/04/02 02:54:53;;;;;;;11.85;8.70;;;11.70;60.70;;;12.39;48.99;97851.94;4909412;29;20056;-44
2021/04/02 02:57:23;;;;;;;14.53;8.73;;;11.70;59.80;;;12.25;49.18;97853.44;4892732;29;20345;-48
2021/04/02 02:59:53;;;;;;;10.70;7.50;;;11.70;60.90;;;12.29;49.30;97851.28;4894560;29;20589;-49
2021/04/02 03:02:22;;;;;;;12.45;7.32;;;11.80;59.50;;;12.31;49.02;97847.44;4894425;29;20248;-47
2021/04/02 03:04:50;;;;;;;10.45;7.53;;;11.90;59.20;;;12.31;48.61;97844.78;4908961;29;20106;-48
2021/04/02 03:07:22;;;;;;;9.20;6.47;;;11.90;58.10;;;12.27;48.49;97853.28;4910569;29;20068;-47
2021/04/02 03:09:51;;;;;;;9.50;6.30;;;11.90;57.50;;;12.27;47.96;97850.59;4894367;29;20246;-50
2021/04/02 03:12:21;;;;;;;11.88;6.40;;;12.00;57.10;;;12.30;48.10;97845.78;4906698;29;20392;-47
2021/04/02 03:14:52;;;;;;;9.30;6.40;;;12.00;57.00;;;12.35;47.70;97848.78;4909923;29;20437;-49
2021/04/02 03:17:21;;;;;;;9.48;6.30;;;12.00;57.00;;;12.38;48.23;97845.75;4910316;29;20068;-47
2021/04/02 03:19:50;;;;;;;9.55;7.10;;;11.90;57.50;;;12.38;47.67;97850.28;4893092;29;20062;-48
2021/04/02 03:22:28;;;;;;;7.43;5.63;;;11.90;57.40;;;12.38;47.73;97844.94;4908917;29;20354;-48
2021/04/02 03:25:12;;;;;;;9.77;6.03;;;11.80;57.50;;;12.33;47.72;97847.25;4895555;29;20066;-46
2021/04/02 03:27:47;;;;;;;10.47;5.47;;;11.80;57.30;;;12.30;47.46;97852.94;4910098;29;20062;-50
2021/04/02 03:30:23;;;;;;;10.23;5.60;;;11.80;56.80;;;12.18;46.50;97863.94;4891801;29;20052;-49
2021/04/02 03:33:22;;;;;;;8.30;4.85;;;11.50;56.40;;;12.02;46.08;97858.63;4878708;29;20395;-47
2021/04/02 03:36:04;;;;;;;7.03;5.30;;;11.40;54.70;;;11.85;46.09;97856.88;4908762;29;20052;-46
2021/04/02 03:38:36;;;;;;;7.43;4.00;;;11.20;55.60;;;11.80;46.19;97852.03;4894479;29;20070;-48
2021/04/02 03:41:18;;;;;;;8.93;4.38;;;11.20;55.30;;;11.76;45.98;97859.50;4894084;29;20146;-48
2021/04/02 03:43:47;;;;;;;6.87;4.27;;;11.30;54.70;;;11.79;45.71;97853.03;4908467;29;20058;-47
2021/04/02 03:46:17;;;;;;;6.18;4.13;;;11.30;54.60;;;11.73;45.43;97851.00;4909754;29;20542;-45
2021/04/02 03:48:50;;;;;;;5.50;3.53;;;11.20;54.00;;;11.62;44.80;97855.66;4907975;29;20062;-48
2021/04/02 03:51:24;;;;;;;5.27;3.80;;;11.00;54.30;;;11.56;44.81;97861.63;4892560;29;20684;-47
2021/04/02 03:54:03;;;;;;;10.17;4.20;;;10.90;54.00;;;11.51;44.99;97857.78;4877682;29;20067;-48
2021/04/02 03:56:36;;;;;;;8.37;4.47;;;11.00;53.30;;;11.43;44.77;97862.09;4906884;29;20063;-45
2021/04/02 03:59:08;;;;;;;5.13;3.83;;;10.80;53.50;;;11.33;44.84;97858.72;4908949;29;20643;-45
2021/04/02 04:01:45;;;;;;;;;;;10.60;54.10;;;11.14;43.85;97853.66;4909774;29;20500;-50
2021/04/02 04:04:13;;;;;;;6.23;3.77;;;10.50;52.30;;;11.18;44.36;97868.31;4909075;29;19933;-45
2021/04/02 04:06:48;;;;;;;7.17;3.30;;;10.40;53.30;;;11.12;43.93;97866.31;4891355;29;20060;-47
2021/04/02 04:09:22;;;;;;;5.40;2.95;;;10.30;52.90;;;11.06;44.00;97867.78;4907217;29;20074;-50
2021/04/02 04:11:57;;;;;;;5.27;3.20;;;10.30;53.10;;;10.98;44.07;97867.72;4876375;29;20407;-47
2021/04/02 04:14:40;;;;;;;5.07;3.40;;;10.20;52.70;;;10.95;44.08;97874.22;4894565;29;20397;-48
2021/04/02 04:17:08;;;;;;;8.97;3.20;;;10.20;53.00;;;10.94;43.86;97869.03;4892663;29;20358;-48
2021/04/02 04:19:38;;;;;;;5.27;3.23;;;10.20;52.80;;;10.89;43.95;97874.81;4906957;29;20055;-48
2021/04/02 04:22:12;;;;;;;4.23;2.57;;;10.10;52.90;;;10.82;44.18;97876.47;4909246;29;20380;-47
2021/04/02 04:24:45;;;;;;;6.37;3.20;;;10.10;53.00;;;10.67;44.04;97880.69;4905804;29;20060;-50
2021/04/02 04:27:14;;;;;;;6.13;3.73;;;9.80;54.10;;;10.65;44.31;97878.19;4876875;29;20139;-48
2021/04/02 04:29:50;;;;;;;5.43;3.13;;;9.80;53.70;;;10.60;44.30;97873.34;4909020;29;20060;-47
2021/04/02 04:32:20;;;;;;;5.00;4.10;;;9.80;54.00;;;10.52;44.79;97875.09;4939060;23;20063;-55
2021/04/02 04:34:50;;;;;;;7.87;3.50;;;9.70;54.50;;;10.46;44.50;97875.72;4911542;29;20055;-55
2021/04/02 04:37:19;;;;;;;7.90;3.43;;;9.60;54.60;;;10.32;45.20;97879.78;4928651;29;20068;-55
2021/04/02 04:39:48;;;;;;;7.53;3.83;;;9.40;55.40;;;10.18;45.20;97881.94;4927587;29;20052;-57
2021/04/02 04:42:20;;;;;;;9.10;4.27;;;9.30;55.40;;;10.15;45.30;97882.25;4911186;29;20082;-56
2021/04/02 04:44:53;;;;;;;5.83;3.73;;;9.20;55.60;;;10.04;45.25;97879.81;4928011;29;20431;-55
2021/04/02 04:47:21;;;;;;;4.57;3.20;;;9.10;55.50;;;9.95;45.10;97884.22;4911590;29;20273;-56
2021/04/02 04:49:48;;;;;;;6.40;3.10;;;9.00;55.20;;;9.84;44.99;97877.28;4928459;29;20066;-55
2021/04/02 04:52:18;;;;;;;4.33;2.80;;;9.00;54.70;;;9.81;44.96;97877.59;4926536;29;20059;-54
2021/04/02 04:54:50;;;;;;;5.90;3.10;;;9.00;54.70;;;9.81;44.93;97877.59;4911628;29;20055;-53
2021/04/02 04:57:20;;;;;;;5.27;2.53;;;9.00;54.60;;;9.83;44.83;97874.81;4896060;29;20052;-54
2021/04/02 04:59:51;;;;;;;4.93;2.63;;;9.00;54.50;;;9.74;44.95;97883.69;4927034;29;20052;-56
2021/04/02 05:02:21;;;;;;;7.40;3.40;;;9.00;54.40;;;9.75;44.94;97880.03;4927862;29;20066;-57
2021/04/02 05:04:50;;;;;;;7.00;2.97;;;8.90;54.60;;;9.70;44.95;97877.81;4910022;29;20047;-57
2021/04/02 05:07:21;;;;;;;7.47;2.53;;;8.90;54.30;;;9.72;44.95;97877.69;4910959;29;20252;-56
2021/04/02 05:09:50;;;;;;;4.90;3.30;;;8.80;54.30;;;9.67;44.87;97878.09;4909979;29;20047;-55
2021/04/02 05:12:19;;;;;;;6.53;3.77;;;8.80;54.30;;;9.64;44.69;97887.22;4927196;29;20067;-55
2021/04/02 05:14:48;;;;;;;7.13;3.57;;;8.80;54.30;;;9.66;44.98;97885.25;4928570;29;20060;-52
2021/04/02 05:17:17;;;;;;;6.33;3.30;;;8.90;54.20;;;9.59;44.84;97886.81;4910724;29;20057;-56
2021/04/02 05:19:46;;;;;;;4.20;2.60;;;8.80;54.10;;;9.52;44.82;97880.47;4910921;29;20070;-57
2021/04/02 05:22:14;;;;;;;6.20;2.70;;;8.70;54.10;;;9.58;44.80;97889.66;4914217;29;20067;-57
2021/04/02 05:24:41;;;;;;;6.63;2.63;;;8.80;54.10;;;9.61;44.83;97899.97;4930161;29;20086;-55
2021/04/02 05:27:09;;;;;;;6.67;3.43;;;8.80;54.00;;;9.59;45.06;97892.16;4930429;29;20051;-56
2021/04/02 05:29:36;;;;;;;9.33;3.10;;;8.80;54.20;;;9.58;44.80;97885.16;4931018;29;20057;-56
2021/04/02 05:32:05;;;;;;;7.77;3.10;;;8.80;54.50;;;9.52;44.94;97896.41;4930481;29;20058;-55
2021/04/02 05:34:32;;;;;;;6.47;3.33;;;8.70;54.80;;;9.51;45.18;97897.38;4929395;29;20060;-56
2021/04/02 05:37:03;;;;;;;8.00;3.63;;;8.70;54.90;;;9.49;45.31;97902.00;4930550;29;20070;-57
2021/04/02 05:39:30;;;;;;;4.90;3.60;;;8.70;55.10;;;9.48;45.23;97894.16;4931628;29;20055;-56
2021/04/02 05:42:04;;;;;;;5.63;3.70;;;8.70;55.10;;;9.42;45.57;97895.59;4931059;29;20060;-55
2021/04/02 05:44:35;;;;;;;7.37;3.07;;;8.60;55.30;;;9.38;45.41;97897.75;4930467;29;20734;-55
2021/04/02 05:47:08;;;;;;;3.93;3.13;;;8.50;55.20;;;9.29;45.35;97895.94;4931066;29;20060;-56
2021/04/02 05:49:37;;;;;;;6.15;3.50;;;8.40;55.20;;;9.29;45.51;97897.78;4931869;29;20055;-55
2021/04/02 05:52:05;;;;;;;4.97;2.77;;;8.40;55.40;;;9.21;45.62;97896.69;4930084;29;20071;-53
2021/04/02 05:54:39;;;;;;;6.40;3.13;;;8.40;55.70;;;9.22;45.71;97895.69;4913971;29;20047;-56
2021/04/02 05:57:08;;;;;;;4.90;2.88;;;8.50;55.50;;;9.22;45.71;97894.84;4931379;29;20055;-56
2021/04/02 05:59:41;;;;;;;5.30;2.97;;;8.50;55.30;;;9.26;45.75;97902.38;4930123;29;20396;-56
2021/04/02 06:02:14;;;;;;;6.93;3.20;;;8.60;54.90;;;9.33;45.56;97897.34;4914207;29;20059;-56
2021/04/02 06:04:41;;;;;;;5.43;3.07;;;8.70;54.70;;;9.31;45.22;97895.81;4931492;29;20081;-56
2021/04/02 06:07:09;;;;;;;5.10;2.83;;;8.60;54.90;;;9.27;45.61;97890.78;4928925;29;20061;-56
2021/04/02 06:09:36;;;;;;;6.13;3.10;;;8.50;55.10;;;9.24;45.62;97896.38;4914064;29;20066;-56
2021/04/02 06:12:04;;;;;;;7.67;3.13;;;8.50;55.50;;;9.23;45.84;97889.41;4930919;29;20058;-57
2021/04/02 06:14:31;;;;;;;4.20;2.93;;;8.40;55.50;;;9.25;46.16;97889.25;4929240;29;20252;-54
2021/04/02 06:16:59;;;;;;;3.63;3.23;;;8.50;55.50;;;9.21;46.34;97894.03;4931416;29;20051;-55
2021/04/02 06:19:26;;;;;;;7.40;3.83;;;8.50;55.70;;;9.14;46.59;97897.41;4931716;29;20048;-55
2021/04/02 06:21:57;;;;;;;9.10;3.87;;;8.40;56.40;;;9.12;46.26;97896.72;4928812;29;20059;-54
2021/04/02 06:24:37;;;;;;;8.17;3.30;;;8.40;56.20;;;9.19;46.47;97896.00;4929627;29;20371;-56
2021/04/02 06:27:11;;;;;;;6.90;3.63;;;8.60;56.20;;;9.21;46.21;97893.19;4930534;29;20052;-56
2021/04/02 06:29:41;;;;;;;5.63;3.78;;;8.60;55.80;;;9.21;46.58;97899.34;4930029;29;20048;-55
2021/04/02 06:32:14;;;;;;;8.17;3.70;;;8.60;55.90;;;9.21;46.61;97896.69;4929702;29;20052;-56
2021/04/02 06:34:49;;;;;;;5.10;3.60;;;8.60;56.40;;;9.13;46.79;97895.72;4928858;29;20232;-54
2021/04/02 06:37:20;;;;;;;6.90;3.53;;;8.60;56.50;;;9.09;47.01;97904.97;4930197;29;20055;-56
2021/04/02 06:39:52;;;;;;;6.87;3.60;;;8.40;57.00;;;8.99;47.23;97907.66;4931117;29;20047;-56
2021/04/02 06:42:31;;;;;;;7.37;4.10;;;8.30;57.20;;;9.01;47.16;97903.88;4929974;29;20066;-55
2021/04/02 06:45:08;;;;;;;5.33;3.57;;;8.40;57.30;;;8.99;47.82;97907.66;4928803;29;20086;-55
2021/04/02 06:47:42;;;;;;;5.53;3.73;;;8.30;57.60;;;8.94;48.26;97921.38;4912554;29;20416;-52
2021/04/02 06:50:25;;;;;;;6.25;4.00;;;8.30;57.90;;;8.97;47.96;97913.13;4928298;29;20250;-56
2021/04/02 06:52:57;;;;;;;6.03;4.23;;;8.30;58.10;;;9.04;47.92;97924.00;4927652;29;20059;-57
2021/04/02 06:55:27;;;;;;;7.95;4.32;;;8.40;57.70;;;9.11;47.63;97932.22;4927894;29;20060;-57
2021/04/02 06:57:57;;;;;;;8.67;3.90;;;8.50;57.40;;;9.12;47.80;97923.28;4935851;29;20047;-55
2021/04/02 07:00:28;;;;;;;7.77;4.23;;;8.60;56.70;;;8.90;48.47;97929.75;4931694;29;20059;-55
2021/04/02 07:02:56;;;;;;;8.67;4.37;;;8.50;57.70;;;8.92;48.59;97927.81;4945603;29;20088;-55
2021/04/02 07:05:26;;;;;;;8.40;4.40;;;8.40;58.00;;;8.87;48.76;97929.06;4946924;29;20055;-56
2021/04/02 07:08:07;;;;;;;6.43;4.37;;;8.30;58.40;;;8.93;48.41;97927.66;4946255;29;20067;-56
2021/04/02 07:10:39;;;;;;;6.40;4.60;;;8.40;58.00;;;8.81;49.04;97927.00;4948050;29;20059;-58
2021/04/02 07:13:09;;;;;;;6.63;4.13;;;8.40;58.50;;;8.89;48.76;97931.59;4947283;29;20036;-56
2021/04/02 07:15:38;;;;;;;8.57;5.17;;;8.40;58.30;;;8.91;48.48;97931.44;4929904;29;20233;-56
2021/04/02 07:18:12;;;;;;;7.73;4.97;;;8.40;58.10;;;8.74;49.15;97935.66;4947940;29;20069;-55
2021/04/02 07:20:39;;;;;;;6.05;4.40;;;8.30;59.20;;;8.75;49.48;97930.22;4946779;29;20260;-53
2021/04/02 07:23:07;;;;;;;7.43;5.20;;;8.30;58.70;;;8.78;49.35;97932.59;4947419;29;20054;-57
2021/04/02 07:25:34;;;;;;;8.17;4.73;;;8.30;58.80;;;8.85;49.29;97931.03;4928210;29;20060;-57
2021/04/02 07:28:02;;;;;;;7.43;4.63;;;8.40;58.30;;;8.98;48.51;97932.56;4948343;29;20063;-58
2021/04/02 07:30:31;;;;;;;7.40;5.03;;;8.60;57.60;;;9.04;49.20;97934.63;4946306;29;20047;-56
2021/04/02 07:33:08;;;;;;;7.93;4.20;;;8.80;57.70;;;9.05;48.86;97929.19;4947115;29;20280;-57
2021/04/02 07:35:40;;;;;;;7.77;5.13;;;8.80;58.00;;;9.11;49.09;97937.53;4930612;29;20055;-59
2021/04/02 07:38:15;;;;;;;9.10;4.50;;;8.70;58.60;;;9.12;48.84;97936.56;4947329;29;20049;-58
2021/04/02 07:40:48;;;;;;;7.30;4.67;;;8.70;58.00;;;9.22;49.18;97932.88;4930298;29;20055;-55
2021/04/02 07:43:16;;;;;;;8.55;5.03;;;8.90;58.20;;;9.31;48.90;97933.84;4946374;28;20059;-56
2021/04/02 07:45:51;;;;;;;9.47;5.23;;;9.00;57.50;;;9.41;49.12;97942.59;4947018;29;20054;-56
2021/04/02 07:48:25;;;;;;;9.33;6.07;;;9.20;58.40;;;9.46;48.50;97934.22;4947777;29;20043;-57
2021/04/02 07:51:02;;;;;;;8.67;5.40;;;9.20;57.00;;;9.55;48.32;97938.63;4945824;29;20059;-57
2021/04/02 07:53:32;;;;;;;8.63;5.33;;;9.30;56.80;;;9.61;48.63;97948.66;4947578;29;20055;-55
2021/04/02 07:56:18;;;;;;;9.30;5.30;;;9.50;56.50;;;9.57;48.55;97946.44;4945833;29;20460;-57
2021/04/02 07:58:54;;;;;;;10.93;5.90;;;9.30;56.90;;;9.59;48.18;97957.75;4945485;29;20058;-56
2021/04/02 08:01:24;;;;;;;7.33;5.60;;;9.30;56.60;;;9.65;48.40;97951.84;4946231;29;20081;-56
2021/04/02 08:03:53;;;;;;;8.90;6.03;;;9.40;56.60;;;9.53;48.56;97955.69;4945461;29;20059;-57
2021/04/02 08:06:38;;;;;;;6.73;5.37;;;9.20;56.80;;;9.57;48.52;97952.59;4945809;29;20069;-55
2021/04/02 08:09:08;;;;;;;9.30;6.13;;;9.30;57.20;;;9.54;48.28;97954.69;4945962;29;20055;-54
2021/04/02 08:11:44;;;;;;;7.57;5.70;;;9.20;57.20;;;9.42;49.56;97954.91;4919568;29;20068;-56
2021/04/02 08:14:13;;;;;;;7.23;5.33;;;9.20;58.30;;;9.36;49.82;97952.81;4908567;29;20698;-58
2021/04/02 08:16:47;;;;;;;7.73;5.07;;;9.00;58.80;;;9.44;49.77;97954.75;4926845;29;20059;-57
2021/04/02 08:19:19;;;;;;;11.13;5.87;;;9.00;58.90;;;9.47;49.32;97954.47;4928809;29;20055;-55
2021/04/02 08:21:59;;;;;;;8.83;5.83;;;9.10;58.60;;;9.48;49.29;97952.63;4927632;29;20074;-59
2021/04/02 08:24:48;;;;;;;9.20;5.80;;;9.10;58.70;;;9.48;50.19;97952.63;4926819;29;20055;-59
2021/04/02 08:27:16;;;;;;;8.83;5.93;;;9.20;59.00;;;9.50;50.22;97943.56;4928622;29;20054;-61
2021/04/02 08:29:46;;;;;;;9.10;5.87;;;9.20;58.80;;;9.60;49.72;97949.66;4927372;29;20244;-59
2021/04/02 08:32:16;;;;;;;10.17;6.30;;;9.40;58.70;;;9.60;49.48;97954.13;4927797;29;20047;-58
2021/04/02 08:34:43;;;;;;;10.10;6.00;;;9.30;58.30;;;9.63;49.53;97956.47;4927755;29;20059;-60
2021/04/02 08:37:16;;;;;;;10.23;6.57;;;9.30;58.40;;;9.40;50.25;97948.06;4928795;29;20260;-59
2021/04/02 08:39:44;;;;;;;8.10;5.93;;;9.10;59.20;;;9.33;50.40;97950.47;4927390;29;20061;-54
2021/04/02 08:42:12;;;;;;;8.03;6.50;;;9.00;59.70;;;9.42;50.28;97951.41;4928793;29;20514;-55
2021/04/02 08:44:42;;;;;;;11.00;6.80;;;9.00;60.00;;;9.51;50.03;97944.38;4909334;29;20077;-55
2021/04/02 08:47:12;;;;;;;9.07;6.40;;;9.20;59.20;;;9.52;50.72;97954.00;4927416;29;20065;-55
2021/04/02 08:49:42;;;;;;;10.83;5.73;;;9.30;59.40;;;9.61;50.05;97951.31;4927063;29;20082;-56
2021/04/02 08:52:15;;;;;;;7.57;5.70;;;9.40;58.90;;;9.68;50.25;97951.56;4944096;29;20051;-56
2021/04/02 08:54:44;;;;;;;;;;;9.50;59.00;;;9.78;49.76;97952.34;4942991;28;20051;-56
2021/04/02 08:57:14;;;;;;;9.40;6.33;;;9.60;58.30;;;9.97;49.82;97950.56;4949298;29;19933;-56
2021/04/02 08:59:46;;;;;;;10.00;6.53;;;9.90;57.80;;;10.12;49.46;97942.88;4948926;29;20065;-56
2021/04/02 09:02:14;;;;;;;10.37;6.87;;;10.10;57.10;;;10.19;49.36;97949.28;4918367;29;20047;-56
2021/04/02 09:04:44;;;;;;;17.10;7.23;;;10.30;56.90;;;10.33;49.42;97945.28;4933373;29;20055;-58
2021/04/02 09:07:14;;;;;;;10.37;6.80;;;10.40;57.00;;;10.37;49.32;97946.66;4942577;29;20055;-54
2021/04/02 09:09:46;;;;;;;9.80;7.43;;;10.30;57.20;;;10.24;48.75;97944.38;4925243;29;20054;-54
2021/04/02 09:12:19;;;;;;;10.90;7.17;;;10.10;56.50;;;10.04;49.32;97939.19;4901729;29;20055;-55
2021/04/02 09:14:50;;;;;;;12.40;7.40;;;9.90;57.60;;;10.10;49.56;97947.53;4949020;29;20047;-52
2021/04/02 09:17:26;;;;;;;8.53;6.67;;;9.90;57.90;;;10.22;49.15;97938.34;4948691;29;20241;-56
2021/04/02 09:19:55;;;;;;;13.50;8.43;;;10.10;57.20;;;10.20;49.41;97946.47;4949604;29;20055;-56
2021/04/02 09:22:24;;;;;;;12.80;7.77;;;10.10;57.50;;;10.35;49.08;97943.31;4948702;29;20066;-54
2021/04/02 09:24:54;;;;;;;10.00;7.70;;;10.20;56.90;;;10.42;48.77;97944.38;4949745;29;20300;-50
2021/04/02 09:27:25;;;;;;;11.53;6.77;;;10.20;56.80;;;10.42;49.00;97947.88;4932352;29;20222;-49
2021/04/02 09:29:56;;;;;;;8.83;6.67;;;10.30;56.80;;;10.54;48.50;97943.16;4946265;29;20069;-50
2021/04/02 09:32:31;;;;;;;9.47;6.83;;;10.60;56.10;;;10.73;48.23;97942.13;4930702;29;20051;-49
2021/04/02 09:35:01;;;;;;;9.30;7.50;;;10.90;55.30;;;10.85;48.37;97942.72;4949418;29;20055;-48
2021/04/02 09:37:30;;;;;;;10.57;7.07;;;11.00;55.10;;;10.95;47.30;97939.97;4932539;29;20379;-49
2021/04/02 09:40:08;;;;;;;8.00;7.03;;;11.10;54.30;;;11.13;47.38;97942.59;4949578;29;20049;-51
2021/04/02 09:42:38;;;;;;;13.03;7.03;;;11.20;54.20;;;11.29;47.09;97948.00;4948803;29;20059;-52
2021/04/02 09:45:11;;;;;;;9.60;6.80;;;11.40;54.20;;;11.43;47.24;97936.72;4948922;29;20063;-52
2021/04/02 09:47:45;;;;;;;10.60;8.45;;;11.60;54.00;;;11.45;46.38;97943.75;4949696;29;20061;-51
2021/04/02 09:50:14;;;;;;;;;;;11.60;53.10;;;11.20;46.46;97944.44;4950268;29;20051;-51
2021/04/02 09:52:44;;;;;;;9.77;7.30;;;11.30;53.40;;;11.25;46.72;97949.31;4932966;29;19919;-52
2021/04/02 09:55:13;;;;;;;12.82;8.07;;;11.10;54.60;;;11.14;46.20;97945.06;4949233;29;20051;-52
2021/04/02 09:57:41;;;;;;;13.32;8.50;;;11.00;53.90;;;10.99;45.37;97946.63;4939447;29;20046;-52
2021/04/02 10:00:12;;;;;;;11.17;8.47;;;10.90;52.70;;;11.09;46.23;97943.88;4927256;29;20077;-52
2021/04/02 10:02:40;;;;;;;10.53;6.53;;;10.90;53.20;;;11.18;46.00;97940.28;4944679;29;20065;-52
2021/04/02 10:05:08;;;;;;;9.80;6.50;;;11.00;53.80;;;11.32;46.63;97939.69;4945611;29;20051;-54
2021/04/02 10:07:36;;;;;;;8.47;6.73;;;11.30;54.10;;;11.46;46.05;97942.75;4942206;29;20074;-51
2021/04/02 10:10:06;;;;;;;9.95;6.63;;;11.50;52.50;;;11.38;45.60;97939.06;4944620;29;20060;-48
2021/04/02 10:12:33;;;;;;;9.27;6.28;;;11.40;52.50;;;11.39;45.66;97943.38;4945066;29;20047;-49
2021/04/02 10:15:05;;;;;;;10.35;6.22;;;11.40;52.40;;;11.51;45.53;97949.25;4932528;29;20046;-49
2021/04/02 10:17:32;;;;;;;8.40;6.72;;;11.50;52.20;;;11.41;45.40;97945.91;4930078;29;20062;-53
2021/04/02 10:20:00;;;;;;;10.33;6.40;;;11.40;52.10;;;11.23;44.96;97946.81;4930762;29;20069;-54
2021/04/02 10:22:28;;;;;;;7.93;6.35;;;11.20;51.60;;;11.22;45.45;97938.97;4929923;29;20085;-50
2021/04/02 10:24:55;;;;;;;9.45;7.03;;;11.00;52.40;;;11.27;45.37;97938.50;4930496;29;20051;-55
2021/04/02 10:27:24;;;;;;;9.40;6.28;;;11.00;52.90;;;11.16;44.84;97935.09;4931627;29;20400;-53
2021/04/02 10:29:51;;;;;;;9.40;6.07;;;10.90;52.00;;;11.16;44.92;97942.25;4929254;29;20047;-53
2021/04/02 10:32:19;;;;;;;8.03;6.33;;;11.00;52.40;;;11.10;44.83;97937.56;4930316;29;20556;-51
2021/04/02 10:34:46;;;;;;;9.23;6.33;;;10.90;51.80;;;11.15;44.82;97946.75;4931919;29;20345;-49
2021/04/02 10:37:14;;;;;;;8.37;6.30;;;11.00;52.20;;;11.22;44.61;97941.63;4930441;29;20048;-54
2021/04/02 10:39:41;;;;;;;8.70;6.20;;;11.10;51.60;;;11.37;44.03;97940.03;4929652;29;20082;-51